createdAt,value
2023-11-01T00:01:16.994Z,97537.25
2023-11-01T00:03:47.625Z,97540.38
2023-11-01T00:06:17.941Z,97543.53
2023-11-01T00:08:48.477Z,97535.28
2023-11-01T00:11:21.500Z,97531.38
2023-11-01T00:13:51.889Z,97543.91
2023-11-01T00:16:22.535Z,97545.28
2023-11-01T00:18:56.134Z,97541.97
2023-11-01T00:21:26.782Z,97543.91
2023-11-01T00:23:57.350Z,97540.00
2023-11-01T00:26:30.716Z,97538.41
2023-11-01T00:29:01.613Z,97534.13
2023-11-01T00:31:32.329Z,97538.41
2023-11-01T00:34:02.828Z,97535.50
2023-11-01T00:36:33.715Z,97535.50
2023-11-01T00:39:04.169Z,97536.06
2023-11-01T00:41:38.654Z,97540.78
2023-11-01T00:44:10.620Z,97539.22
2023-11-01T00:46:41.343Z,97539.22
2023-11-01T00:49:12.979Z,97543.31
2023-11-01T00:51:43.600Z,97541.53
2023-11-01T00:54:14.167Z,97536.63
2023-11-01T00:56:47.348Z,97527.44
2023-11-01T00:59:19.558Z,97530.38
2023-11-01T01:01:50.110Z,97523.13
2023-11-01T01:04:20.726Z,97513.75
2023-11-01T01:06:51.532Z,97521.94
2023-11-01T01:09:22.563Z,97517.44
2023-11-01T01:11:55.970Z,97523.13
2023-11-01T01:14:26.692Z,97520.41
2023-11-01T01:16:57.390Z,97520.00
2023-11-01T01:19:28.173Z,97520.41
2023-11-01T01:21:58.955Z,97512.75
2023-11-01T01:24:30.692Z,97516.28
2023-11-01T01:27:04.260Z,97514.50
2023-11-01T01:29:35.046Z,97508.25
2023-11-01T01:32:06.113Z,97500.81
2023-11-01T01:34:36.815Z,97496.91
2023-11-01T01:37:08.174Z,97494.53
2023-11-01T01:39:38.970Z,97485.13
2023-11-01T01:42:12.537Z,97490.22
2023-11-01T01:44:43.330Z,97494.53
2023-11-01T01:47:14.590Z,97492.59
2023-11-01T01:49:46.158Z,97487.72
2023-11-01T01:52:17.912Z,97478.34
2023-11-01T01:54:49.029Z,97475.78
2023-11-01T01:57:27.042Z,97466.78
2023-11-01T01:59:58.412Z,97468.16
2023-11-01T02:02:29.324Z,97472.06
2023-11-01T02:05:00.143Z,97466.41
2023-11-01T02:07:31.238Z,97467.59
2023-11-01T02:10:02.119Z,97460.53
2023-11-01T02:12:35.736Z,97447.22
2023-11-01T02:15:06.736Z,97447.44
2023-11-01T02:17:38.103Z,97446.69
2023-11-01T02:20:13.999Z,97447.06
2023-11-01T02:22:44.647Z,97439.84
2023-11-01T02:25:19.079Z,97434.75
2023-11-01T02:27:51.188Z,97446.31
2023-11-01T02:30:21.966Z,97446.47
2023-11-01T02:32:53.010Z,97449.22
2023-11-01T02:35:24.482Z,97445.13
2023-11-01T02:37:55.547Z,97444.94
2023-11-01T02:40:29.347Z,97442.97
2023-11-01T02:43:00.304Z,97444.16
2023-11-01T02:45:30.990Z,97449.38
2023-11-01T02:48:01.827Z,97447.63
2023-11-01T02:50:32.671Z,97446.25
2023-11-01T02:53:03.325Z,97445.81
2023-11-01T02:55:36.618Z,97442.22
2023-11-01T02:58:07.352Z,97433.41
2023-11-01T03:00:37.991Z,97441.00
2023-11-01T03:03:08.962Z,97429.22
2023-11-01T03:05:39.814Z,97430.22
2023-11-01T03:08:10.947Z,97427.13
2023-11-01T03:10:44.471Z,97427.53
2023-11-01T03:13:16.174Z,97426.75
2023-11-01T03:15:47.420Z,97427.31
2023-11-01T03:18:18.352Z,97421.31
2023-11-01T03:20:49.321Z,97421.69
2023-11-01T03:23:20.298Z,97423.06
2023-11-01T03:25:53.787Z,97423.47
2023-11-01T03:28:24.520Z,97415.06
2023-11-01T03:30:55.617Z,97417.44
2023-11-01T03:33:26.513Z,97407.66
2023-11-01T03:35:57.311Z,97412.22
2023-11-01T03:38:28.297Z,97413.38
2023-11-01T03:41:01.788Z,97413.97
2023-11-01T03:43:32.455Z,97413.63
2023-11-01T03:46:03.364Z,97413.03
2023-11-01T03:48:34.097Z,97409.69
2023-11-01T03:51:04.767Z,97410.47
2023-11-01T03:53:35.707Z,97412.41
2023-11-01T03:56:12.536Z,97406.16
2023-11-01T03:58:43.252Z,97401.84
2023-11-01T04:01:14.165Z,97396.91
2023-11-01T04:03:45.409Z,97393.94
2023-11-01T04:06:17.132Z,97391.94
2023-11-01T04:08:49.073Z,97392.66
2023-11-01T04:11:22.472Z,97387.41
2023-11-01T04:13:53.806Z,97382.09
2023-11-01T04:16:24.697Z,97379.31
2023-11-01T04:18:55.476Z,97381.59
2023-11-01T04:21:26.252Z,97385.09
2023-11-01T04:23:57.013Z,97387.53
2023-11-01T04:26:30.939Z,97382.84
2023-11-01T04:29:01.771Z,97379.53
2023-11-01T04:31:32.482Z,97379.53
2023-11-01T04:34:04.595Z,97380.25
2023-11-01T04:36:36.846Z,97371.47
2023-11-01T04:39:07.768Z,97366.53
2023-11-01T04:41:41.870Z,97360.81
2023-11-01T04:44:12.738Z,97360.19
2023-11-01T04:46:43.504Z,97363.25
2023-11-01T04:49:14.319Z,97363.13
2023-11-01T04:51:45.395Z,97354.09
2023-11-01T04:54:16.169Z,97345.78
2023-11-01T04:56:49.445Z,97349.06
2023-11-01T04:59:20.309Z,97345.50
2023-11-01T05:01:52.559Z,97336.81
2023-11-01T05:04:23.517Z,97333.81
2023-11-01T05:06:54.855Z,97338.44
2023-11-01T05:09:26.670Z,97341.19
2023-11-01T05:12:00.541Z,97331.03
2023-11-01T05:14:31.333Z,97334.59
2023-11-01T05:17:02.125Z,97333.94
2023-11-01T05:19:32.801Z,97327.06
2023-11-01T05:22:03.719Z,97328.63
2023-11-01T05:24:34.404Z,97328.19
2023-11-01T05:27:08.875Z,97323.09
2023-11-01T05:29:39.594Z,97319.25
2023-11-01T05:32:11.528Z,97314.00
2023-11-01T05:34:42.440Z,97313.22
2023-11-01T05:37:13.707Z,97318.50
2023-11-01T05:39:45.034Z,97319.28
2023-11-01T05:42:18.874Z,97313.63
2023-11-01T05:44:49.615Z,97309.78
2023-11-01T05:47:20.189Z,97312.22
2023-11-01T05:49:51.091Z,97310.16
2023-11-01T05:52:22.221Z,97314.75
2023-11-01T05:54:56.978Z,97312.97
2023-11-01T05:57:34.744Z,97318.41
2023-11-01T06:00:06.786Z,97322.03
2023-11-01T06:02:37.668Z,97320.53
2023-11-01T06:05:11.490Z,97322.91
2023-11-01T06:07:42.332Z,97306.94
2023-11-01T06:10:13.494Z,97306.19
2023-11-01T06:12:47.232Z,97312.19
2023-11-01T06:15:18.172Z,97305.56
2023-11-01T06:17:49.280Z,97300.31
2023-11-01T06:20:21.025Z,97299.94
2023-11-01T06:22:52.364Z,97307.78
2023-11-01T06:25:23.468Z,97302.97
2023-11-01T06:27:57.182Z,97298.50
2023-11-01T06:30:27.936Z,97306.34
2023-11-01T06:32:59.072Z,97300.56
2023-11-01T06:35:30.229Z,97306.53
2023-11-01T06:38:01.063Z,97302.88
2023-11-01T06:40:31.812Z,97307.81
2023-11-01T06:43:05.518Z,97303.97
2023-11-01T06:45:36.813Z,97306.97
2023-11-01T06:48:07.693Z,97303.31
2023-11-01T06:50:40.999Z,97300.88
2023-11-01T06:53:11.758Z,97298.91
2023-11-01T06:55:42.652Z,97308.19
2023-11-01T06:58:15.959Z,97308.81
2023-11-01T07:00:46.775Z,97304.78
2023-11-01T07:03:17.762Z,97312.63
2023-11-01T07:05:49.354Z,97311.13
2023-11-01T07:08:23.186Z,97308.03
2023-11-01T07:10:54.009Z,97310.81
2023-11-01T07:13:29.005Z,97306.53
2023-11-01T07:15:59.743Z,97305.53
2023-11-01T07:18:30.549Z,97308.47
2023-11-01T07:21:01.444Z,97305.34
2023-11-01T07:23:32.269Z,97303.78
2023-11-01T07:26:06.143Z,97305.13
2023-11-01T07:28:39.876Z,97298.84
2023-11-01T07:31:10.740Z,97292.78
2023-11-01T07:33:43.670Z,97289.66
2023-11-01T07:36:14.914Z,97295.53
2023-11-01T07:38:45.834Z,97292.34
2023-11-01T07:41:18.255Z,97292.66
2023-11-01T07:43:51.690Z,97304.34
2023-11-01T07:46:22.546Z,97290.56
2023-11-01T07:48:54.391Z,97292.31
2023-11-01T07:51:25.316Z,97285.41
2023-11-01T07:53:56.246Z,97280.09
2023-11-01T07:56:26.898Z,97279.84
2023-11-01T07:59:00.534Z,97272.31
2023-11-01T08:01:33.272Z,97270.91
2023-11-01T08:04:04.242Z,97265.56
2023-11-01T08:06:35.377Z,97264.00
2023-11-01T08:09:06.225Z,97261.91
2023-11-01T08:11:36.895Z,97265.78
2023-11-01T08:14:10.182Z,97255.16
2023-11-01T08:16:40.940Z,97257.56
2023-11-01T08:19:11.627Z,97260.53
2023-11-01T08:21:42.352Z,97262.31
2023-11-01T08:24:13.374Z,97263.94
2023-11-01T08:26:44.314Z,97250.91
2023-11-01T08:29:17.861Z,97254.44
2023-11-01T08:31:48.668Z,97252.59
2023-11-01T08:34:19.353Z,97249.88
2023-11-01T08:36:50.006Z,97256.25
2023-11-01T08:39:21.276Z,97249.28
2023-11-01T08:41:51.975Z,97262.00
2023-11-01T08:44:25.671Z,97254.72
2023-11-01T08:46:56.354Z,97257.63
2023-11-01T08:49:27.337Z,97261.97
2023-11-01T08:51:57.977Z,97266.44
2023-11-01T08:54:28.742Z,97261.47
2023-11-01T08:56:59.416Z,97257.56
2023-11-01T08:59:32.978Z,97257.69
2023-11-01T09:02:10.174Z,97258.06
2023-11-01T09:04:44.910Z,97247.94
2023-11-01T09:07:15.718Z,97252.81
2023-11-01T09:09:46.445Z,97245.84
2023-11-01T09:12:17.131Z,97246.81
2023-11-01T09:14:50.704Z,97261.13
2023-11-01T09:17:22.242Z,97258.44
2023-11-01T09:19:53.042Z,97259.81
2023-11-01T09:22:24.433Z,97254.63
2023-11-01T09:24:55.741Z,97257.56
2023-11-01T09:27:26.752Z,97253.56
2023-11-01T09:30:00.098Z,97251.88
2023-11-01T09:32:31.064Z,97262.41
2023-11-01T09:35:02.052Z,97250.72
2023-11-01T09:37:32.764Z,97263.50
2023-11-01T09:40:04.034Z,97252.63
2023-11-01T09:42:35.058Z,97246.00
2023-11-01T09:45:13.868Z,97250.66
2023-11-01T09:47:48.665Z,97239.53
2023-11-01T09:50:19.913Z,97238.75
2023-11-01T09:52:50.890Z,97235.09
2023-11-01T09:55:23.047Z,97242.06
2023-11-01T09:57:53.915Z,97237.31
2023-11-01T10:00:28.300Z,97242.47
2023-11-01T10:03:00.294Z,97240.88
2023-11-01T10:05:31.157Z,97237.47
2023-11-01T10:08:02.170Z,97236.72
2023-11-01T10:10:35.736Z,97236.84
2023-11-01T10:13:07.273Z,97233.00
2023-11-01T10:15:43.610Z,97225.41
2023-11-01T10:18:14.392Z,97216.06
2023-11-01T10:20:45.795Z,97207.16
2023-11-01T10:23:16.517Z,97206.88
2023-11-01T10:25:49.424Z,97199.22
2023-11-01T10:28:20.117Z,97190.94
2023-11-01T10:30:53.414Z,97188.22
2023-11-01T10:33:25.082Z,97185.06
2023-11-01T10:36:14.181Z,97189.25
2023-11-01T10:38:45.843Z,97195.56
2023-11-01T10:41:16.796Z,97185.41
2023-11-01T10:43:47.741Z,97181.16
2023-11-01T10:46:21.245Z,97173.94
2023-11-01T10:48:55.060Z,97171.47
2023-11-01T10:51:26.530Z,97160.97
2023-11-01T10:53:58.202Z,97160.84
2023-11-01T10:56:28.968Z,97151.47
2023-11-01T10:59:07.094Z,97146.22
2023-11-01T11:01:45.585Z,97144.84
2023-11-01T11:04:25.418Z,97133.66
2023-11-01T11:07:01.576Z,97123.19
2023-11-01T11:09:33.736Z,97121.25
2023-11-01T11:12:18.230Z,97123.38
2023-11-01T11:14:49.524Z,97123.44
2023-11-01T11:17:25.234Z,97111.38
2023-11-01T11:20:14.204Z,97111.34
2023-11-01T11:23:16.003Z,97106.47
2023-11-01T11:25:54.038Z,97114.19
2023-11-01T11:28:45.687Z,97107.47
2023-11-01T11:31:17.253Z,97103.34
2023-11-01T11:34:17.191Z,97086.19
2023-11-01T11:37:13.052Z,97077.78
2023-11-01T11:39:58.104Z,97067.25
2023-11-01T11:42:51.007Z,97068.31
2023-11-01T11:45:34.611Z,97067.78
2023-11-01T11:48:06.467Z,97072.94
2023-11-01T11:50:39.896Z,97068.84
2023-11-01T11:53:10.557Z,97072.22
2023-11-01T11:55:47.808Z,97062.69
2023-11-01T11:58:19.585Z,97065.25
2023-11-01T12:00:51.972Z,97061.66
2023-11-01T12:03:27.047Z,97065.72
2023-11-01T12:06:03.678Z,97059.16
2023-11-01T12:08:41.838Z,97060.56
2023-11-01T12:11:13.642Z,97053.28
2023-11-01T12:13:49.572Z,97050.88
2023-11-01T12:16:30.493Z,97054.88
2023-11-01T12:19:15.064Z,97055.16
2023-11-01T12:21:50.242Z,97045.66
2023-11-01T12:24:22.478Z,97046.91
2023-11-01T12:27:05.218Z,97040.19
2023-11-01T12:29:38.575Z,97034.56
2023-11-01T12:32:12.611Z,97031.66
2023-11-01T12:35:04.313Z,97022.13
2023-11-01T12:37:38.937Z,97021.09
2023-11-01T12:40:12.076Z,97021.50
2023-11-01T12:42:46.930Z,97026.19
2023-11-01T12:45:19.159Z,97013.09
2023-11-01T12:47:52.041Z,97004.78
2023-11-01T12:50:24.188Z,97008.75
2023-11-01T12:52:57.711Z,97015.38
2023-11-01T12:55:29.489Z,97004.31
2023-11-01T12:58:00.938Z,96989.91
2023-11-01T13:00:32.942Z,96986.47
2023-11-01T13:03:04.278Z,96982.44
2023-11-01T13:05:35.151Z,96975.63
2023-11-01T13:08:09.373Z,96980.78
2023-11-01T13:10:40.007Z,96963.69
2023-11-01T13:13:10.780Z,96962.75
2023-11-01T13:15:41.781Z,96974.09
2023-11-01T13:18:12.954Z,96974.84
2023-11-01T13:20:43.979Z,96962.69
2023-11-01T13:23:17.184Z,96965.94
2023-11-01T13:25:47.865Z,96960.78
2023-11-01T13:28:18.753Z,96956.28
2023-11-01T13:30:49.570Z,96957.50
2023-11-01T13:33:21.153Z,96966.09
2023-11-01T13:35:51.895Z,96956.31
2023-11-01T13:38:25.205Z,96957.13
2023-11-01T13:40:56.035Z,96957.41
2023-11-01T13:43:26.680Z,96955.00
2023-11-01T13:45:57.426Z,96953.47
2023-11-01T13:48:28.292Z,96947.00
2023-11-01T13:50:59.275Z,96955.00
2023-11-01T13:53:32.705Z,96945.50
2023-11-01T13:56:04.734Z,96937.06
2023-11-01T13:58:36.930Z,96932.94
2023-11-01T14:01:08.185Z,96931.41
2023-11-01T14:03:39.453Z,96928.31
2023-11-01T14:06:11.176Z,96931.91
2023-11-01T14:08:44.722Z,96932.66
2023-11-01T14:11:15.813Z,96923.13
2023-11-01T14:13:47.241Z,96928.03
2023-11-01T14:16:18.208Z,96915.66
2023-11-01T14:18:49.249Z,96922.56
2023-11-01T14:21:19.935Z,96919.91
2023-11-01T14:23:54.140Z,96918.59
2023-11-01T14:26:24.743Z,96919.31
2023-11-01T14:28:56.142Z,96920.53
2023-11-01T14:31:27.753Z,96916.69
2023-11-01T14:33:58.776Z,96919.31
2023-11-01T14:36:29.477Z,96911.84
2023-11-01T14:39:02.709Z,96907.00
2023-11-01T14:41:33.452Z,96902.38
2023-11-01T14:44:04.355Z,96914.22
2023-11-01T14:46:35.030Z,96910.34
2023-11-01T14:49:06.875Z,96916.50
2023-11-01T14:51:37.909Z,96904.59
2023-11-01T14:54:11.233Z,96912.25
2023-11-01T14:56:41.945Z,96905.25
2023-11-01T14:59:12.575Z,96900.59
2023-11-01T15:01:43.233Z,96905.69
2023-11-01T15:04:14.163Z,96902.03
2023-11-01T15:06:44.830Z,96901.44
2023-11-01T15:09:21.402Z,96900.06
2023-11-01T15:11:52.584Z,96898.47
2023-11-01T15:14:23.542Z,96897.63
2023-11-01T15:16:54.330Z,96899.84
2023-11-01T15:19:25.109Z,96897.22
2023-11-01T15:21:56.715Z,96893.00
2023-11-01T15:24:30.906Z,96897.25
2023-11-01T15:27:01.978Z,96892.44
2023-11-01T15:29:32.937Z,96894.91
2023-11-01T15:32:03.591Z,96904.28
2023-11-01T15:34:34.343Z,96893.44
2023-11-01T15:37:05.078Z,96895.94
2023-11-01T15:39:38.669Z,96889.91
2023-11-01T15:42:10.257Z,96893.34
2023-11-01T15:44:41.194Z,96888.13
2023-11-01T15:47:12.402Z,96889.53
2023-11-01T15:49:43.066Z,96877.84
2023-11-01T15:52:13.755Z,96875.41
2023-11-01T15:54:51.317Z,96878.06
2023-11-01T15:57:24.312Z,96881.03
2023-11-01T15:59:56.253Z,96876.56
2023-11-01T16:02:30.346Z,96866.94
2023-11-01T16:05:03.153Z,96863.44
2023-11-01T16:07:33.949Z,96866.31
2023-11-01T16:10:07.664Z,96871.09
2023-11-01T16:12:38.348Z,96872.13
2023-11-01T16:15:10.251Z,96879.94
2023-11-01T16:17:41.152Z,96877.31
2023-11-01T16:20:12.740Z,96878.50
2023-11-01T16:22:43.566Z,96882.44
2023-11-01T16:25:17.539Z,96878.97
2023-11-01T16:27:48.186Z,96886.25
2023-11-01T16:30:19.389Z,96889.59
2023-11-01T16:32:56.162Z,96885.25
2023-11-01T16:35:28.132Z,96884.47
2023-11-01T16:37:58.796Z,96889.59
2023-11-01T16:40:32.497Z,96882.13
2023-11-01T16:43:03.263Z,96881.50
2023-11-01T16:45:33.879Z,96886.84
2023-11-01T16:48:04.579Z,96883.72
2023-11-01T16:50:35.769Z,96877.69
2023-11-01T16:53:06.464Z,96877.34
2023-11-01T16:55:40.119Z,96872.84
2023-11-01T16:58:10.779Z,96872.94
2023-11-01T17:00:41.389Z,96862.66
2023-11-01T17:03:12.135Z,96869.31
2023-11-01T17:05:42.930Z,96866.78
2023-11-01T17:08:13.525Z,96872.75
2023-11-01T17:10:46.901Z,96872.41
2023-11-01T17:13:17.824Z,96868.00
2023-11-01T17:15:48.530Z,96864.47
2023-11-01T17:18:19.365Z,96866.81
2023-11-01T17:20:51.105Z,96865.69
2023-11-01T17:23:22.680Z,96861.91
2023-11-01T17:26:22.913Z,96866.56
2023-11-01T17:28:56.990Z,96853.81
2023-11-01T17:31:43.362Z,96852.72
2023-11-01T17:34:15.189Z,96851.50
2023-11-01T17:36:45.972Z,96858.03
2023-11-01T17:39:16.740Z,96855.63
2023-11-01T17:42:00.012Z,96866.34
2023-11-01T17:44:35.444Z,96867.47
2023-11-01T17:47:09.051Z,96866.56
2023-11-01T17:50:01.696Z,96864.47
2023-11-01T17:52:40.353Z,96859.00
2023-11-01T17:55:15.391Z,96846.88
2023-11-01T17:57:48.427Z,96834.22
2023-11-01T18:00:26.034Z,96836.69
2023-11-01T18:03:20.481Z,96837.13
2023-11-01T18:05:52.293Z,96850.44
2023-11-01T18:08:27.427Z,96847.75
2023-11-01T18:10:59.122Z,96850.88
2023-11-01T18:13:31.895Z,96855.75
2023-11-01T18:16:07.370Z,96858.41
2023-11-01T18:18:49.618Z,96864.41
2023-11-01T18:21:22.864Z,96876.63
2023-11-01T18:23:58.944Z,96875.50
2023-11-01T18:26:30.730Z,96875.31
2023-11-01T18:29:00.679Z,96885.50
2023-11-01T18:31:38.469Z,96894.38
2023-11-01T18:34:10.826Z,96890.19
2023-11-01T18:36:44.739Z,96885.00
2023-11-01T18:39:15.506Z,96888.31
2023-11-01T18:41:46.919Z,96882.88
2023-11-01T18:44:26.565Z,96872.22
2023-11-01T18:47:01.823Z,96876.66
2023-11-01T18:50:01.404Z,96874.22
2023-11-01T18:52:32.523Z,96877.44
2023-11-01T18:55:03.434Z,96889.50
2023-11-01T18:57:38.263Z,96896.38
2023-11-01T19:00:11.492Z,96883.69
2023-11-01T19:03:20.111Z,96883.31
2023-11-01T19:05:51.103Z,96865.78
2023-11-01T19:08:21.864Z,96884.19
2023-11-01T19:10:55.011Z,96873.22
2023-11-01T19:13:26.476Z,96868.88
2023-11-01T19:16:16.398Z,96871.22
2023-11-01T19:18:51.831Z,96870.91
2023-11-01T19:21:23.950Z,96873.88
2023-11-01T19:23:54.773Z,96857.25
2023-11-01T19:26:27.479Z,96863.34
2023-11-01T19:28:59.483Z,96850.03
2023-11-01T19:31:30.128Z,96862.13
2023-11-01T19:34:03.506Z,96870.38
2023-11-01T19:36:34.345Z,96859.94
2023-11-01T19:39:05.029Z,96867.19
2023-11-01T19:41:37.034Z,96857.78
2023-11-01T19:44:08.160Z,96844.06
2023-11-01T19:46:39.033Z,96847.84
2023-11-01T19:49:12.444Z,96844.97
2023-11-01T19:51:43.110Z,96848.19
2023-11-01T19:54:13.824Z,96846.44
2023-11-01T19:56:44.418Z,96834.91
2023-11-01T19:59:15.172Z,96837.66
2023-11-01T20:01:46.248Z,96834.78
2023-11-01T20:04:19.848Z,96827.13
2023-11-01T20:06:51.574Z,96851.69
2023-11-01T20:09:23.736Z,96837.56
2023-11-01T20:11:54.364Z,96834.00
2023-11-01T20:14:24.995Z,96834.59
2023-11-01T20:16:55.763Z,96830.00
2023-11-01T20:19:29.033Z,96838.22
2023-11-01T20:22:00.507Z,96845.72
2023-11-01T20:24:31.203Z,96845.34
2023-11-01T20:27:02.418Z,96835.38
2023-11-01T20:29:33.313Z,96836.03
2023-11-01T20:32:04.108Z,96837.81
2023-11-01T20:34:37.455Z,96845.94
2023-11-01T20:37:14.792Z,96844.44
2023-11-01T20:39:45.695Z,96843.28
2023-11-01T20:42:17.114Z,96847.28
2023-11-01T20:44:48.112Z,96834.84
2023-11-01T20:47:19.293Z,96820.91
2023-11-01T20:49:53.202Z,96826.66
2023-11-01T20:52:23.980Z,96834.13
2023-11-01T20:55:06.899Z,96825.06
2023-11-01T20:57:37.981Z,96827.84
2023-11-01T21:00:12.105Z,96826.69
2023-11-01T21:02:43.165Z,96824.84
2023-11-01T21:05:16.516Z,96816.34
2023-11-01T21:07:47.301Z,96821.22
2023-11-01T21:47:56.397Z,96784.97
2023-11-01T21:51:00.480Z,96781.44
2023-11-01T21:53:34.149Z,96775.25
2023-11-01T21:56:05.145Z,96763.19
2023-11-01T21:58:37.240Z,96760.84
2023-11-01T22:01:10.066Z,96744.31
2023-11-01T22:03:48.075Z,96757.94
2023-11-01T22:06:22.897Z,96746.25
2023-11-01T22:09:06.133Z,96738.69
2023-11-01T22:11:38.936Z,96735.59
2023-11-01T22:14:11.662Z,96726.25
2023-11-01T22:16:44.734Z,96726.03
2023-11-01T22:19:35.573Z,96724.31
2023-11-01T22:22:13.684Z,96723.13
2023-11-01T22:24:45.388Z,96715.34
2023-11-01T22:27:18.928Z,96705.81
2023-11-01T22:29:50.916Z,96690.66
2023-11-01T22:32:29.405Z,96687.31
2023-11-01T22:35:04.201Z,96683.47
2023-11-01T22:37:34.953Z,96665.56
2023-11-01T22:40:09.737Z,96660.91
2023-11-01T22:42:42.947Z,96646.47
2023-11-01T22:45:14.127Z,96650.16
2023-11-01T22:47:44.876Z,96657.16
2023-11-01T22:50:18.460Z,96647.25
2023-11-01T22:52:49.124Z,96628.19
2023-11-01T22:55:19.694Z,96618.84
2023-11-01T22:57:50.558Z,96616.69
2023-11-01T23:00:29.432Z,96603.50
2023-11-01T23:03:00.614Z,96597.47
2023-11-01T23:05:35.737Z,96591.63
2023-11-01T23:08:06.587Z,96593.97
2023-11-01T23:10:37.270Z,96596.50
2023-11-01T23:13:07.798Z,96600.00
2023-11-01T23:15:38.350Z,96590.84
2023-11-01T23:18:09.034Z,96585.81
2023-11-01T23:20:44.447Z,96577.63
2023-11-01T23:23:15.414Z,96565.97
2023-11-01T23:25:46.020Z,96558.41
2023-11-01T23:28:42.658Z,96551.19
2023-11-01T23:31:18.243Z,96539.94
2023-11-01T23:33:49.078Z,96541.09
2023-11-01T23:36:28.412Z,96532.56
2023-11-01T23:38:59.880Z,96540.31
2023-11-01T23:41:48.440Z,96540.31
2023-11-01T23:44:20.022Z,96548.84
2023-11-01T23:46:50.653Z,96549.63
2023-11-01T23:49:46.831Z,96545.34
2023-11-01T23:52:23.291Z,96534.88
2023-11-01T23:54:55.379Z,96526.53
2023-11-01T23:57:27.032Z,96516.00
